LGMK

Details ICAO LGMK (JMK)
Name Mikonos
Region Greece
Timezone Europe/Athens (UTC+3.0)
Plans Departing 284
Arriving 431
Stats Elevation 404 ft / 123 m (AMSL)
Location 37.435400° 25.348100°
Runways 1
Magnetic Variation 4.682° E
Sunrise 2018-10-15 04:27:27 UTC / 2018-10-15 07:27:27 Local
Sunset 2018-10-15 15:43:41 UTC / 2018-10-15 18:43:41 Local
Advertisement - Login to hide

Runways

ID Width Length Bearing (true/mag) Surface Threshold Overrun Markings Lighting
16 98 ft / 30 m 6,423 ft / 1,958 m 160.63° / 155.94° ASPHALT 0 ft / 0 m 200 ft / 61 m APP EDGE THRESHOLD REIL-OMNI
34 98 ft / 30 m 6,423 ft / 1,958 m 340.63° / 335.95° ASPHALT 0 ft / 0 m 200 ft / 61 m APP EDGE THRESHOLD REIL-OMNI

Map

Weather


0- 5 10 15 20 25 30 35+ Temperature / °C

Clouds and Precipitation
Forecast for 2018-10-15 12:00 UTC. Updated 3 hours ago

Ground ~20,000 ft ~40,000 ft Winds

METAR

LGMK 151220Z 36015KT 9999 FEW008 22/16 Q1017

TAF

Not found

Frequencies

Tower 119.87 MHz
Approach 118.75 MHz
Warning: Do not use this data for real-world aviation or navigation. No guarantee of current accuracy is given.